sensor_id;sensor_type;location;lat;lon;timestamp;temperature;humidity
43999;DHT22;51319;52.162;5.302;2023-12-20T00:01:09;5.90;99.90
43999;DHT22;51319;52.162;5.302;2023-12-20T00:03:36;5.80;99.90
43999;DHT22;51319;52.162;5.302;2023-12-20T00:06:09;5.70;99.90
43999;DHT22;51319;52.162;5.302;2023-12-20T00:08:36;5.70;99.90
43999;DHT22;51319;52.162;5.302;2023-12-20T00:11:03;5.60;99.90
43999;DHT22;51319;52.162;5.302;2023-12-20T00:13:30;5.60;99.90
43999;DHT22;51319;52.162;5.302;2023-12-20T00:15:57;5.50;99.90
43999;DHT22;51319;52.162;5.302;2023-12-20T00:18:24;5.50;99.90
43999;DHT22;51319;52.162;5.302;2023-12-20T00:20:51;5.50;99.90
43999;DHT22;51319;52.162;5.302;2023-12-20T00:23:18;5.40;99.90
43999;DHT22;51319;52.162;5.302;2023-12-20T00:25:45;5.40;99.90
43999;DHT22;51319;52.162;5.302;2023-12-20T00:28:12;5.40;99.90
43999;DHT22;51319;52.162;5.302;2023-12-20T00:30:39;5.30;99.90
43999;DHT22;51319;52.162;5.302;2023-12-20T00:33:06;5.30;99.90
43999;DHT22;51319;52.162;5.302;2023-12-20T00:35:33;5.30;99.90
43999;DHT22;51319;52.162;5.302;2023-12-20T00:38:01;5.30;99.90
43999;DHT22;51319;52.162;5.302;2023-12-20T00:40:28;5.20;99.90
43999;DHT22;51319;52.162;5.302;2023-12-20T00:42:54;5.30;99.90
43999;DHT22;51319;52.162;5.302;2023-12-20T00:45:21;5.20;99.90
43999;DHT22;51319;52.162;5.302;2023-12-20T00:47:48;5.20;99.90
43999;DHT22;51319;52.162;5.302;2023-12-20T00:50:16;5.20;99.90
43999;DHT22;51319;52.162;5.302;2023-12-20T00:52:43;5.20;99.90
43999;DHT22;51319;52.162;5.302;2023-12-20T00:55:11;5.10;99.90
43999;DHT22;51319;52.162;5.302;2023-12-20T00:57:38;5.10;99.90
43999;DHT22;51319;52.162;5.302;2023-12-20T01:00:06;5.10;99.90
43999;DHT22;51319;52.162;5.302;2023-12-20T01:02:33;5.10;99.90
43999;DHT22;51319;52.162;5.302;2023-12-20T01:05:00;5.10;99.90
43999;DHT22;51319;52.162;5.302;2023-12-20T01:07:27;5.20;99.90
43999;DHT22;51319;52.162;5.302;2023-12-20T01:09:54;5.20;99.90
43999;DHT22;51319;52.162;5.302;2023-12-20T01:12:24;5.20;99.90
43999;DHT22;51319;52.162;5.302;2023-12-20T01:14:51;5.10;99.90
43999;DHT22;51319;52.162;5.302;2023-12-20T01:17:19;5.10;99.90
43999;DHT22;51319;52.162;5.302;2023-12-20T01:19:46;5.10;99.90
43999;DHT22;51319;52.162;5.302;2023-12-20T01:22:13;5.10;99.90
43999;DHT22;51319;52.162;5.302;2023-12-20T01:24:40;5.20;99.90
43999;DHT22;51319;52.162;5.302;2023-12-20T01:27:06;5.20;99.90
43999;DHT22;51319;52.162;5.302;2023-12-20T01:29:34;5.30;99.90
43999;DHT22;51319;52.162;5.302;2023-12-20T01:32:01;5.40;99.90
43999;DHT22;51319;52.162;5.302;2023-12-20T01:34:28;5.50;99.90
43999;DHT22;51319;52.162;5.302;2023-12-20T01:36:56;5.50;99.90
43999;DHT22;51319;52.162;5.302;2023-12-20T01:39:23;5.40;99.90
43999;DHT22;51319;52.162;5.302;2023-12-20T01:41:55;5.40;99.90
43999;DHT22;51319;52.162;5.302;2023-12-20T01:44:22;5.40;99.90
43999;DHT22;51319;52.162;5.302;2023-12-20T01:46:49;5.30;99.90
43999;DHT22;51319;52.162;5.302;2023-12-20T01:49:16;5.30;99.90
43999;DHT22;51319;52.162;5.302;2023-12-20T01:51:44;5.40;99.90
43999;DHT22;51319;52.162;5.302;2023-12-20T01:54:12;5.40;99.90
43999;DHT22;51319;52.162;5.302;2023-12-20T01:56:39;5.40;99.90
43999;DHT22;51319;52.162;5.302;2023-12-20T01:59:07;5.40;99.90
43999;DHT22;51319;52.162;5.302;2023-12-20T02:01:35;5.40;99.90
43999;DHT22;51319;52.162;5.302;2023-12-20T02:04:03;5.40;99.90
43999;DHT22;51319;52.162;5.302;2023-12-20T02:06:30;5.40;99.90
43999;DHT22;51319;52.162;5.302;2023-12-20T02:09:00;5.40;99.90
43999;DHT22;51319;52.162;5.302;2023-12-20T02:11:27;5.40;99.90
43999;DHT22;51319;52.162;5.302;2023-12-20T02:13:55;5.50;99.90
43999;DHT22;51319;52.162;5.302;2023-12-20T02:16:23;5.60;99.90
43999;DHT22;51319;52.162;5.302;2023-12-20T02:18:50;5.60;99.90
43999;DHT22;51319;52.162;5.302;2023-12-20T02:21:17;5.70;99.90
43999;DHT22;51319;52.162;5.302;2023-12-20T02:23:44;5.70;99.90
43999;DHT22;51319;52.162;5.302;2023-12-20T02:26:11;5.80;99.90
43999;DHT22;51319;52.162;5.302;2023-12-20T02:28:40;5.70;99.90
43999;DHT22;51319;52.162;5.302;2023-12-20T02:31:07;5.70;99.90
43999;DHT22;51319;52.162;5.302;2023-12-20T02:33:34;5.70;99.90
43999;DHT22;51319;52.162;5.302;2023-12-20T02:36:01;5.70;99.90
43999;DHT22;51319;52.162;5.302;2023-12-20T02:38:29;5.70;99.90
43999;DHT22;51319;52.162;5.302;2023-12-20T02:40:56;5.80;99.90
43999;DHT22;51319;52.162;5.302;2023-12-20T02:43:22;5.80;99.90
43999;DHT22;51319;52.162;5.302;2023-12-20T02:45:51;5.90;99.90
43999;DHT22;51319;52.162;5.302;2023-12-20T02:48:18;5.90;99.90
43999;DHT22;51319;52.162;5.302;2023-12-20T02:50:47;5.90;99.90
43999;DHT22;51319;52.162;5.302;2023-12-20T02:53:15;5.90;99.90
43999;DHT22;51319;52.162;5.302;2023-12-20T02:55:43;5.90;99.90
43999;DHT22;51319;52.162;5.302;2023-12-20T02:58:11;5.80;99.90
43999;DHT22;51319;52.162;5.302;2023-12-20T03:00:39;5.80;99.90
43999;DHT22;51319;52.162;5.302;2023-12-20T03:03:06;5.90;99.90
43999;DHT22;51319;52.162;5.302;2023-12-20T03:05:33;5.80;99.90
43999;DHT22;51319;52.162;5.302;2023-12-20T03:08:00;5.80;99.90
43999;DHT22;51319;52.162;5.302;2023-12-20T03:10:27;5.80;99.90
43999;DHT22;51319;52.162;5.302;2023-12-20T03:12:54;5.80;99.90
43999;DHT22;51319;52.162;5.302;2023-12-20T03:15:21;5.80;99.90
43999;DHT22;51319;52.162;5.302;2023-12-20T03:17:48;5.80;99.90
43999;DHT22;51319;52.162;5.302;2023-12-20T03:20:16;5.80;99.90
43999;DHT22;51319;52.162;5.302;2023-12-20T03:22:43;5.80;99.90
43999;DHT22;51319;52.162;5.302;2023-12-20T03:25:10;5.90;99.90
43999;DHT22;51319;52.162;5.302;2023-12-20T03:27:37;5.90;99.90
43999;DHT22;51319;52.162;5.302;2023-12-20T03:30:08;5.90;99.90
43999;DHT22;51319;52.162;5.302;2023-12-20T03:32:36;5.90;99.90
43999;DHT22;51319;52.162;5.302;2023-12-20T03:35:04;5.90;99.90
43999;DHT22;51319;52.162;5.302;2023-12-20T03:37:31;5.90;99.90
43999;DHT22;51319;52.162;5.302;2023-12-20T03:39:58;5.90;99.90
43999;DHT22;51319;52.162;5.302;2023-12-20T03:42:25;6.00;99.90
43999;DHT22;51319;52.162;5.302;2023-12-20T03:44:52;6.00;99.90
43999;DHT22;51319;52.162;5.302;2023-12-20T03:47:19;6.00;99.90
43999;DHT22;51319;52.162;5.302;2023-12-20T03:49:46;6.00;99.90
43999;DHT22;51319;52.162;5.302;2023-12-20T03:52:13;5.90;99.90
43999;DHT22;51319;52.162;5.302;2023-12-20T03:54:40;5.90;99.90
43999;DHT22;51319;52.162;5.302;2023-12-20T03:57:09;5.90;99.90
43999;DHT22;51319;52.162;5.302;2023-12-20T03:59:38;6.00;99.90
43999;DHT22;51319;52.162;5.302;2023-12-20T04:02:05;6.00;99.90
43999;DHT22;51319;52.162;5.302;2023-12-20T04:04:32;6.10;99.90
43999;DHT22;51319;52.162;5.302;2023-12-20T04:06:59;6.20;99.90
43999;DHT22;51319;52.162;5.302;2023-12-20T04:09:27;6.20;99.90
43999;DHT22;51319;52.162;5.302;2023-12-20T04:11:53;6.30;99.90
43999;DHT22;51319;52.162;5.302;2023-12-20T04:14:20;6.30;99.90
43999;DHT22;51319;52.162;5.302;2023-12-20T04:16:47;6.30;99.90
43999;DHT22;51319;52.162;5.302;2023-12-20T04:19:14;6.30;99.90
43999;DHT22;51319;52.162;5.302;2023-12-20T04:21:41;6.40;99.90
43999;DHT22;51319;52.162;5.302;2023-12-20T04:24:08;6.40;99.90
43999;DHT22;51319;52.162;5.302;2023-12-20T04:26:35;6.40;99.90
43999;DHT22;51319;52.162;5.302;2023-12-20T04:29:02;6.40;99.90
43999;DHT22;51319;52.162;5.302;2023-12-20T04:31:29;6.50;99.90
43999;DHT22;51319;52.162;5.302;2023-12-20T04:33:58;6.50;99.90
43999;DHT22;51319;52.162;5.302;2023-12-20T04:36:25;6.50;99.90
43999;DHT22;51319;52.162;5.302;2023-12-20T04:38:54;6.60;99.90
43999;DHT22;51319;52.162;5.302;2023-12-20T04:41:21;6.60;99.90
43999;DHT22;51319;52.162;5.302;2023-12-20T04:43:48;6.60;99.90
43999;DHT22;51319;52.162;5.302;2023-12-20T04:46:15;6.70;99.90
43999;DHT22;51319;52.162;5.302;2023-12-20T04:48:42;6.70;99.90
43999;DHT22;51319;52.162;5.302;2023-12-20T04:51:09;6.70;99.90
43999;DHT22;51319;52.162;5.302;2023-12-20T04:53:36;6.70;99.90
43999;DHT22;51319;52.162;5.302;2023-12-20T04:56:03;6.70;99.90
43999;DHT22;51319;52.162;5.302;2023-12-20T04:58:30;6.80;99.90
43999;DHT22;51319;52.162;5.302;2023-12-20T05:00:57;6.80;99.90
43999;DHT22;51319;52.162;5.302;2023-12-20T05:03:24;6.80;99.90
43999;DHT22;51319;52.162;5.302;2023-12-20T05:05:52;6.80;99.90
43999;DHT22;51319;52.162;5.302;2023-12-20T05:08:20;6.80;99.90
43999;DHT22;51319;52.162;5.302;2023-12-20T05:10:47;6.80;99.90
43999;DHT22;51319;52.162;5.302;2023-12-20T05:13:15;6.90;99.90
43999;DHT22;51319;52.162;5.302;2023-12-20T05:15:42;6.80;99.90
43999;DHT22;51319;52.162;5.302;2023-12-20T05:18:09;6.80;99.90
43999;DHT22;51319;52.162;5.302;2023-12-20T05:20:36;6.90;99.90
43999;DHT22;51319;52.162;5.302;2023-12-20T05:23:04;6.90;99.90
43999;DHT22;51319;52.162;5.302;2023-12-20T05:25:30;6.90;99.90
43999;DHT22;51319;52.162;5.302;2023-12-20T05:27:58;6.90;99.90
43999;DHT22;51319;52.162;5.302;2023-12-20T05:30:25;6.90;99.90
43999;DHT22;51319;52.162;5.302;2023-12-20T05:32:53;6.90;99.90
43999;DHT22;51319;52.162;5.302;2023-12-20T05:35:20;6.90;99.90
43999;DHT22;51319;52.162;5.302;2023-12-20T05:37:49;6.90;99.90
43999;DHT22;51319;52.162;5.302;2023-12-20T05:40:16;6.90;99.90
43999;DHT22;51319;52.162;5.302;2023-12-20T05:42:43;6.90;99.90
43999;DHT22;51319;52.162;5.302;2023-12-20T05:45:10;6.90;99.90
43999;DHT22;51319;52.162;5.302;2023-12-20T05:47:37;6.90;99.90
43999;DHT22;51319;52.162;5.302;2023-12-20T05:50:05;6.90;99.90
43999;DHT22;51319;52.162;5.302;2023-12-20T05:52:32;6.90;99.90
43999;DHT22;51319;52.162;5.302;2023-12-20T05:54:59;6.90;99.90
43999;DHT22;51319;52.162;5.302;2023-12-20T05:57:28;6.90;99.90
43999;DHT22;51319;52.162;5.302;2023-12-20T05:59:55;6.90;99.90
43999;DHT22;51319;52.162;5.302;2023-12-20T06:02:22;6.90;99.90
43999;DHT22;51319;52.162;5.302;2023-12-20T06:04:49;7.00;99.90
43999;DHT22;51319;52.162;5.302;2023-12-20T06:07:17;7.00;99.90
43999;DHT22;51319;52.162;5.302;2023-12-20T06:09:44;7.00;99.90
43999;DHT22;51319;52.162;5.302;2023-12-20T06:12:11;7.00;99.90
43999;DHT22;51319;52.162;5.302;2023-12-20T06:14:38;7.00;99.90
43999;DHT22;51319;52.162;5.302;2023-12-20T06:17:05;7.00;99.90
43999;DHT22;51319;52.162;5.302;2023-12-20T06:19:33;7.00;99.90
43999;DHT22;51319;52.162;5.302;2023-12-20T06:22:00;7.00;99.90
43999;DHT22;51319;52.162;5.302;2023-12-20T06:24:27;7.10;99.90
43999;DHT22;51319;52.162;5.302;2023-12-20T06:26:55;7.10;99.90
43999;DHT22;51319;52.162;5.302;2023-12-20T06:29:22;7.00;99.90
43999;DHT22;51319;52.162;5.302;2023-12-20T06:31:49;7.10;99.90
43999;DHT22;51319;52.162;5.302;2023-12-20T06:34:16;7.10;99.90
43999;DHT22;51319;52.162;5.302;2023-12-20T06:36:46;7.10;99.90
43999;DHT22;51319;52.162;5.302;2023-12-20T06:39:13;7.10;99.90
43999;DHT22;51319;52.162;5.302;2023-12-20T06:41:40;7.10;99.90
43999;DHT22;51319;52.162;5.302;2023-12-20T06:44:09;7.20;99.90
43999;DHT22;51319;52.162;5.302;2023-12-20T06:46:37;7.20;99.90
43999;DHT22;51319;52.162;5.302;2023-12-20T06:49:04;7.20;99.90
43999;DHT22;51319;52.162;5.302;2023-12-20T06:51:31;7.20;99.90
43999;DHT22;51319;52.162;5.302;2023-12-20T06:53:58;7.20;99.90
43999;DHT22;51319;52.162;5.302;2023-12-20T06:56:25;7.20;99.90
43999;DHT22;51319;52.162;5.302;2023-12-20T06:58:52;7.30;99.90
43999;DHT22;51319;52.162;5.302;2023-12-20T07:01:19;7.30;99.90
43999;DHT22;51319;52.162;5.302;2023-12-20T07:03:46;7.30;99.90
43999;DHT22;51319;52.162;5.302;2023-12-20T07:06:14;7.30;99.90
43999;DHT22;51319;52.162;5.302;2023-12-20T07:08:44;7.30;99.90
43999;DHT22;51319;52.162;5.302;2023-12-20T07:11:12;7.40;99.90
43999;DHT22;51319;52.162;5.302;2023-12-20T07:13:39;7.40;99.90
43999;DHT22;51319;52.162;5.302;2023-12-20T07:16:06;7.30;99.90
43999;DHT22;51319;52.162;5.302;2023-12-20T07:18:34;7.40;99.90
43999;DHT22;51319;52.162;5.302;2023-12-20T07:21:03;7.40;99.90
43999;DHT22;51319;52.162;5.302;2023-12-20T07:23:31;7.40;99.90
43999;DHT22;51319;52.162;5.302;2023-12-20T07:25:58;7.40;99.90
43999;DHT22;51319;52.162;5.302;2023-12-20T07:28:25;7.40;99.90
43999;DHT22;51319;52.162;5.302;2023-12-20T07:30:52;7.50;99.90
43999;DHT22;51319;52.162;5.302;2023-12-20T07:33:19;7.50;99.90
43999;DHT22;51319;52.162;5.302;2023-12-20T07:35:46;7.50;99.90
43999;DHT22;51319;52.162;5.302;2023-12-20T07:38:13;7.50;99.90
43999;DHT22;51319;52.162;5.302;2023-12-20T07:40:43;7.50;99.90
43999;DHT22;51319;52.162;5.302;2023-12-20T07:43:10;7.50;99.90
43999;DHT22;51319;52.162;5.302;2023-12-20T07:45:37;7.50;99.90
43999;DHT22;51319;52.162;5.302;2023-12-20T07:48:06;7.50;99.90
43999;DHT22;51319;52.162;5.302;2023-12-20T07:50:34;7.50;99.90
43999;DHT22;51319;52.162;5.302;2023-12-20T07:53:02;7.50;99.90
43999;DHT22;51319;52.162;5.302;2023-12-20T07:55:32;7.60;99.90
43999;DHT22;51319;52.162;5.302;2023-12-20T07:57:59;7.60;99.90
43999;DHT22;51319;52.162;5.302;2023-12-20T08:00:32;7.60;99.90
43999;DHT22;51319;52.162;5.302;2023-12-20T08:03:00;7.60;99.90
43999;DHT22;51319;52.162;5.302;2023-12-20T08:05:30;7.60;99.90
43999;DHT22;51319;52.162;5.302;2023-12-20T08:07:57;7.60;99.90
43999;DHT22;51319;52.162;5.302;2023-12-20T08:10:24;7.60;99.90
43999;DHT22;51319;52.162;5.302;2023-12-20T08:12:52;7.60;99.90
43999;DHT22;51319;52.162;5.302;2023-12-20T08:15:19;7.60;99.90
43999;DHT22;51319;52.162;5.302;2023-12-20T08:17:46;7.70;99.90
43999;DHT22;51319;52.162;5.302;2023-12-20T08:20:13;7.60;99.90
43999;DHT22;51319;52.162;5.302;2023-12-20T08:22:48;7.60;99.90
43999;DHT22;51319;52.162;5.302;2023-12-20T08:25:16;7.70;99.90
43999;DHT22;51319;52.162;5.302;2023-12-20T08:27:43;7.70;99.90
43999;DHT22;51319;52.162;5.302;2023-12-20T08:30:11;7.70;99.90
43999;DHT22;51319;52.162;5.302;2023-12-20T08:32:39;7.70;99.90
43999;DHT22;51319;52.162;5.302;2023-12-20T08:35:06;7.70;99.90
43999;DHT22;51319;52.162;5.302;2023-12-20T08:37:33;7.70;99.90
43999;DHT22;51319;52.162;5.302;2023-12-20T08:40:00;7.70;99.90
43999;DHT22;51319;52.162;5.302;2023-12-20T08:42:27;7.70;99.90
43999;DHT22;51319;52.162;5.302;2023-12-20T08:44:58;7.70;99.90
43999;DHT22;51319;52.162;5.302;2023-12-20T08:47:25;7.80;99.90
43999;DHT22;51319;52.162;5.302;2023-12-20T08:49:52;7.80;99.90
43999;DHT22;51319;52.162;5.302;2023-12-20T08:52:23;7.80;99.90
43999;DHT22;51319;52.162;5.302;2023-12-20T08:54:51;7.80;99.90
43999;DHT22;51319;52.162;5.302;2023-12-20T08:57:19;7.70;99.90
43999;DHT22;51319;52.162;5.302;2023-12-20T08:59:47;7.80;99.90
43999;DHT22;51319;52.162;5.302;2023-12-20T09:02:14;7.80;99.90
43999;DHT22;51319;52.162;5.302;2023-12-20T09:04:42;7.80;99.90
43999;DHT22;51319;52.162;5.302;2023-12-20T09:07:25;7.80;99.90
43999;DHT22;51319;52.162;5.302;2023-12-20T09:09:53;7.80;99.90
43999;DHT22;51319;52.162;5.302;2023-12-20T09:12:20;7.80;99.90
43999;DHT22;51319;52.162;5.302;2023-12-20T09:14:49;7.80;99.90
43999;DHT22;51319;52.162;5.302;2023-12-20T09:17:16;7.80;99.90
43999;DHT22;51319;52.162;5.302;2023-12-20T09:19:44;7.80;99.90
43999;DHT22;51319;52.162;5.302;2023-12-20T09:22:11;7.80;99.90
43999;DHT22;51319;52.162;5.302;2023-12-20T09:24:39;7.90;99.90
43999;DHT22;51319;52.162;5.302;2023-12-20T09:27:06;7.90;99.90
43999;DHT22;51319;52.162;5.302;2023-12-20T09:29:33;7.90;99.90
43999;DHT22;51319;52.162;5.302;2023-12-20T09:32:00;7.90;99.90
43999;DHT22;51319;52.162;5.302;2023-12-20T09:34:27;8.00;99.90
43999;DHT22;51319;52.162;5.302;2023-12-20T09:36:55;8.00;99.90
43999;DHT22;51319;52.162;5.302;2023-12-20T09:39:22;8.00;99.90
43999;DHT22;51319;52.162;5.302;2023-12-20T09:42:01;8.10;99.90
43999;DHT22;51319;52.162;5.302;2023-12-20T09:44:29;8.10;99.90
43999;DHT22;51319;52.162;5.302;2023-12-20T09:46:56;8.20;99.90
43999;DHT22;51319;52.162;5.302;2023-12-20T09:49:25;8.20;99.90
43999;DHT22;51319;52.162;5.302;2023-12-20T09:51:54;8.30;99.90
43999;DHT22;51319;52.162;5.302;2023-12-20T09:54:23;8.30;99.90
43999;DHT22;51319;52.162;5.302;2023-12-20T09:56:50;8.30;99.90
43999;DHT22;51319;52.162;5.302;2023-12-20T09:59:17;8.40;99.90
43999;DHT22;51319;52.162;5.302;2023-12-20T10:01:44;8.50;99.90
43999;DHT22;51319;52.162;5.302;2023-12-20T10:04:13;8.50;99.90
43999;DHT22;51319;52.162;5.302;2023-12-20T10:06:55;8.60;99.90
43999;DHT22;51319;52.162;5.302;2023-12-20T10:09:24;8.60;99.90
43999;DHT22;51319;52.162;5.302;2023-12-20T10:11:54;8.60;99.90
43999;DHT22;51319;52.162;5.302;2023-12-20T10:14:21;8.60;99.90
43999;DHT22;51319;52.162;5.302;2023-12-20T10:16:50;8.60;99.90
43999;DHT22;51319;52.162;5.302;2023-12-20T10:19:17;8.50;99.90
43999;DHT22;51319;52.162;5.302;2023-12-20T10:21:47;8.50;99.90
43999;DHT22;51319;52.162;5.302;2023-12-20T10:24:25;8.60;99.90
43999;DHT22;51319;52.162;5.302;2023-12-20T10:27:08;8.60;99.90
43999;DHT22;51319;52.162;5.302;2023-12-20T10:29:37;8.70;99.90
43999;DHT22;51319;52.162;5.302;2023-12-20T10:32:25;8.80;99.90
43999;DHT22;51319;52.162;5.302;2023-12-20T10:34:53;8.80;99.90
43999;DHT22;51319;52.162;5.302;2023-12-20T10:37:21;8.80;99.90
43999;DHT22;51319;52.162;5.302;2023-12-20T10:39:51;8.80;99.90
43999;DHT22;51319;52.162;5.302;2023-12-20T10:42:26;8.80;99.90
43999;DHT22;51319;52.162;5.302;2023-12-20T10:44:53;8.90;99.90
43999;DHT22;51319;52.162;5.302;2023-12-20T10:47:21;8.90;99.90
43999;DHT22;51319;52.162;5.302;2023-12-20T10:49:49;9.00;99.90
43999;DHT22;51319;52.162;5.302;2023-12-20T10:52:19;9.00;99.90
43999;DHT22;51319;52.162;5.302;2023-12-20T10:54:47;9.00;99.90
43999;DHT22;51319;52.162;5.302;2023-12-20T10:57:15;9.00;99.90
43999;DHT22;51319;52.162;5.302;2023-12-20T10:59:45;9.00;99.90
43999;DHT22;51319;52.162;5.302;2023-12-20T11:02:17;9.10;99.90
43999;DHT22;51319;52.162;5.302;2023-12-20T11:04:50;9.20;99.90
43999;DHT22;51319;52.162;5.302;2023-12-20T11:07:55;9.30;99.90
43999;DHT22;51319;52.162;5.302;2023-12-20T11:13:39;9.40;99.90
43999;DHT22;51319;52.162;5.302;2023-12-20T11:16:07;10.10;99.90
43999;DHT22;51319;52.162;5.302;2023-12-20T11:18:35;10.80;99.90
43999;DHT22;51319;52.162;5.302;2023-12-20T11:21:04;10.70;99.90
43999;DHT22;51319;52.162;5.302;2023-12-20T11:23:32;10.50;99.90
43999;DHT22;51319;52.162;5.302;2023-12-20T11:26:03;10.30;99.90
43999;DHT22;51319;52.162;5.302;2023-12-20T11:28:30;10.00;99.90
43999;DHT22;51319;52.162;5.302;2023-12-20T11:30:58;9.90;99.90
43999;DHT22;51319;52.162;5.302;2023-12-20T11:33:38;9.90;99.90
43999;DHT22;51319;52.162;5.302;2023-12-20T11:36:15;10.00;99.90
43999;DHT22;51319;52.162;5.302;2023-12-20T11:38:56;10.00;99.90
43999;DHT22;51319;52.162;5.302;2023-12-20T11:41:25;10.00;99.90
43999;DHT22;51319;52.162;5.302;2023-12-20T11:43:53;10.00;99.90
43999;DHT22;51319;52.162;5.302;2023-12-20T11:46:21;10.00;99.90
43999;DHT22;51319;52.162;5.302;2023-12-20T11:48:48;10.00;99.90
43999;DHT22;51319;52.162;5.302;2023-12-20T11:51:15;10.10;99.90
43999;DHT22;51319;52.162;5.302;2023-12-20T11:53:42;10.10;99.90
43999;DHT22;51319;52.162;5.302;2023-12-20T11:56:11;10.20;99.90
43999;DHT22;51319;52.162;5.302;2023-12-20T11:58:41;10.20;99.90
43999;DHT22;51319;52.162;5.302;2023-12-20T12:01:09;10.20;99.90
43999;DHT22;51319;52.162;5.302;2023-12-20T12:03:36;10.10;99.90
43999;DHT22;51319;52.162;5.302;2023-12-20T12:06:04;10.10;99.90
43999;DHT22;51319;52.162;5.302;2023-12-20T12:08:32;10.10;99.90
43999;DHT22;51319;52.162;5.302;2023-12-20T12:10:59;10.10;99.90
43999;DHT22;51319;52.162;5.302;2023-12-20T12:13:27;10.10;99.90
43999;DHT22;51319;52.162;5.302;2023-12-20T12:15:58;10.10;99.90
43999;DHT22;51319;52.162;5.302;2023-12-20T12:18:25;10.20;99.90
43999;DHT22;51319;52.162;5.302;2023-12-20T12:21:00;10.10;99.90
43999;DHT22;51319;52.162;5.302;2023-12-20T12:23:28;10.20;99.90
43999;DHT22;51319;52.162;5.302;2023-12-20T12:25:56;10.10;99.90
43999;DHT22;51319;52.162;5.302;2023-12-20T12:28:27;10.10;99.90
43999;DHT22;51319;52.162;5.302;2023-12-20T12:31:16;10.10;99.90
43999;DHT22;51319;52.162;5.302;2023-12-20T12:33:45;10.10;99.90
43999;DHT22;51319;52.162;5.302;2023-12-20T12:36:13;10.10;99.90
43999;DHT22;51319;52.162;5.302;2023-12-20T12:38:43;10.10;99.90
43999;DHT22;51319;52.162;5.302;2023-12-20T12:41:13;10.10;99.90
43999;DHT22;51319;52.162;5.302;2023-12-20T12:43:43;10.00;99.90
43999;DHT22;51319;52.162;5.302;2023-12-20T12:46:14;10.00;99.90
43999;DHT22;51319;52.162;5.302;2023-12-20T12:48:41;10.00;99.90
43999;DHT22;51319;52.162;5.302;2023-12-20T12:51:12;10.00;99.90
43999;DHT22;51319;52.162;5.302;2023-12-20T12:53:40;10.00;99.90
43999;DHT22;51319;52.162;5.302;2023-12-20T12:56:07;10.00;99.90
43999;DHT22;51319;52.162;5.302;2023-12-20T12:58:35;9.90;99.90
43999;DHT22;51319;52.162;5.302;2023-12-20T13:01:02;9.90;99.90
43999;DHT22;51319;52.162;5.302;2023-12-20T13:03:30;9.90;99.90
43999;DHT22;51319;52.162;5.302;2023-12-20T13:05:57;9.80;99.90
43999;DHT22;51319;52.162;5.302;2023-12-20T13:08:24;9.90;99.90
43999;DHT22;51319;52.162;5.302;2023-12-20T13:10:51;9.80;99.90
43999;DHT22;51319;52.162;5.302;2023-12-20T13:13:18;9.80;99.90
43999;DHT22;51319;52.162;5.302;2023-12-20T13:15:45;9.80;99.90
43999;DHT22;51319;52.162;5.302;2023-12-20T13:18:19;9.80;99.90
43999;DHT22;51319;52.162;5.302;2023-12-20T13:20:46;9.70;99.90
43999;DHT22;51319;52.162;5.302;2023-12-20T13:23:13;9.70;99.90
43999;DHT22;51319;52.162;5.302;2023-12-20T13:25:41;9.70;99.90
43999;DHT22;51319;52.162;5.302;2023-12-20T13:28:08;9.70;99.90
43999;DHT22;51319;52.162;5.302;2023-12-20T13:30:36;9.70;99.90
43999;DHT22;51319;52.162;5.302;2023-12-20T13:33:03;9.70;99.90
43999;DHT22;51319;52.162;5.302;2023-12-20T13:35:30;9.60;99.90
43999;DHT22;51319;52.162;5.302;2023-12-20T13:37:59;9.60;99.90
43999;DHT22;51319;52.162;5.302;2023-12-20T13:40:27;9.60;99.90
43999;DHT22;51319;52.162;5.302;2023-12-20T13:42:57;9.60;99.90
43999;DHT22;51319;52.162;5.302;2023-12-20T13:45:24;9.60;99.90
43999;DHT22;51319;52.162;5.302;2023-12-20T13:47:52;9.70;99.90
43999;DHT22;51319;52.162;5.302;2023-12-20T13:50:19;9.70;99.90
43999;DHT22;51319;52.162;5.302;2023-12-20T13:52:46;9.70;99.90
43999;DHT22;51319;52.162;5.302;2023-12-20T13:55:13;9.80;99.90
43999;DHT22;51319;52.162;5.302;2023-12-20T13:57:40;9.80;99.90
43999;DHT22;51319;52.162;5.302;2023-12-20T14:00:21;9.80;99.90
43999;DHT22;51319;52.162;5.302;2023-12-20T14:02:48;9.80;99.90
43999;DHT22;51319;52.162;5.302;2023-12-20T14:05:16;9.80;99.90
43999;DHT22;51319;52.162;5.302;2023-12-20T14:07:49;9.80;99.90
43999;DHT22;51319;52.162;5.302;2023-12-20T14:10:18;9.80;99.90
43999;DHT22;51319;52.162;5.302;2023-12-20T14:12:45;9.70;99.90
43999;DHT22;51319;52.162;5.302;2023-12-20T14:15:12;9.70;99.90
43999;DHT22;51319;52.162;5.302;2023-12-20T14:17:40;9.70;99.90
43999;DHT22;51319;52.162;5.302;2023-12-20T14:20:11;9.70;99.90
43999;DHT22;51319;52.162;5.302;2023-12-20T14:22:41;9.60;99.90
43999;DHT22;51319;52.162;5.302;2023-12-20T14:25:12;9.60;99.90
43999;DHT22;51319;52.162;5.302;2023-12-20T14:27:43;9.60;99.90
43999;DHT22;51319;52.162;5.302;2023-12-20T14:30:12;9.60;99.90
43999;DHT22;51319;52.162;5.302;2023-12-20T14:32:41;9.60;99.90
43999;DHT22;51319;52.162;5.302;2023-12-20T14:35:08;9.60;99.90
43999;DHT22;51319;52.162;5.302;2023-12-20T14:37:36;9.60;99.90
43999;DHT22;51319;52.162;5.302;2023-12-20T14:40:10;9.60;99.90
43999;DHT22;51319;52.162;5.302;2023-12-20T14:42:45;9.50;99.90
43999;DHT22;51319;52.162;5.302;2023-12-20T14:45:14;9.60;99.90
43999;DHT22;51319;52.162;5.302;2023-12-20T14:47:42;9.60;99.90
43999;DHT22;51319;52.162;5.302;2023-12-20T14:50:11;9.50;99.90
43999;DHT22;51319;52.162;5.302;2023-12-20T14:52:44;9.50;99.90
43999;DHT22;51319;52.162;5.302;2023-12-20T14:55:15;9.50;99.90
43999;DHT22;51319;52.162;5.302;2023-12-20T14:57:42;9.50;99.90
43999;DHT22;51319;52.162;5.302;2023-12-20T15:00:10;9.40;99.90
43999;DHT22;51319;52.162;5.302;2023-12-20T15:02:37;9.40;99.90
43999;DHT22;51319;52.162;5.302;2023-12-20T15:05:04;9.40;99.90
43999;DHT22;51319;52.162;5.302;2023-12-20T15:07:45;9.40;99.90
43999;DHT22;51319;52.162;5.302;2023-12-20T15:10:29;9.40;99.90
43999;DHT22;51319;52.162;5.302;2023-12-20T15:12:57;9.40;99.90
43999;DHT22;51319;52.162;5.302;2023-12-20T15:15:28;9.40;99.90
43999;DHT22;51319;52.162;5.302;2023-12-20T15:17:56;9.40;99.90
43999;DHT22;51319;52.162;5.302;2023-12-20T15:20:25;9.40;99.90
43999;DHT22;51319;52.162;5.302;2023-12-20T15:22:52;9.40;99.90
43999;DHT22;51319;52.162;5.302;2023-12-20T15:25:20;9.40;99.90
43999;DHT22;51319;52.162;5.302;2023-12-20T15:27:49;9.30;99.90
43999;DHT22;51319;52.162;5.302;2023-12-20T15:30:23;9.40;99.90
43999;DHT22;51319;52.162;5.302;2023-12-20T15:32:56;9.30;99.90
43999;DHT22;51319;52.162;5.302;2023-12-20T15:35:24;9.30;99.90
43999;DHT22;51319;52.162;5.302;2023-12-20T15:37:51;9.20;99.90
43999;DHT22;51319;52.162;5.302;2023-12-20T15:40:18;9.30;99.90
43999;DHT22;51319;52.162;5.302;2023-12-20T15:42:45;9.20;99.90
43999;DHT22;51319;52.162;5.302;2023-12-20T15:45:13;9.20;99.90
43999;DHT22;51319;52.162;5.302;2023-12-20T15:47:40;9.20;99.90
43999;DHT22;51319;52.162;5.302;2023-12-20T15:50:07;9.20;99.90
43999;DHT22;51319;52.162;5.302;2023-12-20T15:52:35;9.20;99.90
43999;DHT22;51319;52.162;5.302;2023-12-20T15:55:04;9.10;99.90